MV Sea Wolf — WCW6738 — position and weather

sailwx.info

Track history (hours):
 
Tides and Currents Weather Stations Pressure Air Temp Water Temp Dewpoint Dewpoint Depression Visibility Wind Speed Wind Dir Waves Ship Positions

MV Sea Wolf

Owner: SEA WOLF MARINE TOWING & TRANSPORTATION, Bayonne, NJ. More information available from US FCC via Universal Licensing System and Coast Guard Vessel Documentation Center.

Last reported at 2017-May-24 07:30 UTC. Time now 2017-May-24 07:57 UTC.
Position N 40°41' W 074°05'.

Length 66 m; draft 10 m.

MMSI: 367002350.

Date/timePositionNaut miles runAvg speedWind from/ knotsBaromVisibWave heightAir tempDewpointWater temp
2017-May-24 07:30N 40°41' W 074°05'0 0.0
2017-May-24 07:00N 40°41' W 074°05'0 0.0
2017-May-24 06:30N 40°41' W 074°05'0 0.0
2017-May-24 06:00N 40°41' W 074°05'0 0.0
2017-May-24 05:30N 40°41' W 074°05'0 0.0
2017-May-24 05:00N 40°41' W 074°05'0 0.0
2017-May-24 04:30N 40°41' W 074°05'0 0.0
2017-May-24 04:00N 40°41' W 074°05'0 0.0
2017-May-24 03:30N 40°41' W 074°05'0 0.0
2017-May-24 03:00N 40°41' W 074°05'0 0.0
2017-May-24 02:30N 40°41' W 074°05'0 0.0
2017-May-24 02:00N 40°41' W 074°05'0 0.0
2017-May-24 01:30N 40°41' W 074°05'0 0.0
2017-May-24 01:00N 40°41' W 074°05'0 0.0
2017-May-24 00:30N 40°41' W 074°05'0 0.0
2017-May-24 00:00N 40°41' W 074°05'0 0.0
2017-May-23 23:30N 40°41' W 074°05'0 0.0
2017-May-23 23:00N 40°41' W 074°05'0 0.0
2017-May-23 22:30N 40°41' W 074°05'0 0.0
2017-May-23 22:00N 40°41' W 074°05'0 0.0
2017-May-23 21:30N 40°41' W 074°05'0 0.0
2017-May-23 21:00N 40°41' W 074°05'0 0.0
2017-May-23 20:30N 40°41' W 074°05'0 0.0
2017-May-23 20:00N 40°41' W 074°05'0 0.0
2017-May-23 19:30N 40°41' W 074°05'0 0.0
2017-May-23 19:00N 40°41' W 074°05'0 0.0
2017-May-23 18:30N 40°41' W 074°05'0 0.0
2017-May-23 18:00N 40°41' W 074°05'0 0.0
2017-May-23 17:30N 40°41' W 074°05'0 0.0
2017-May-23 17:00N 40°41' W 074°05'0 0.0
2017-May-23 16:30N 40°41' W 074°05'0 0.0
2017-May-23 16:00N 40°41' W 074°05'0 0.0
2017-May-23 15:30N 40°41' W 074°05'0 0.0
2017-May-23 15:00N 40°41' W 074°05'0 0.0
2017-May-23 14:00N 40°41' W 074°05'0 0.0
2017-May-23 13:30N 40°41' W 074°05'0 0.0
2017-May-23 13:00N 40°41' W 074°05'0 0.0
2017-May-23 12:30N 40°41' W 074°05'0 0.0
2017-May-23 12:00N 40°41' W 074°05'0 0.0
2017-May-23 11:30N 40°41' W 074°05'2 3.2
2017-May-23 11:00N 40°41' W 074°03'3 6.3
2017-May-23 10:30N 40°44' W 074°01'1 1.5
2017-May-23 10:00N 40°45' W 074°01'0 0.1
2017-May-23 09:30N 40°45' W 074°01'0 0.1
2017-May-23 09:00N 40°45' W 074°01'3 5.9
2017-May-23 08:30N 40°42' W 074°02'2 4.3
2017-May-23 08:00N 40°41' W 074°05'0 0.0
2017-May-23 07:30N 40°41' W 074°05'0 0.0
2017-May-23 07:00N 40°41' W 074°05'0 0.0
2017-May-23 06:30N 40°41' W 074°05'0 0.0
2017-May-23 06:00N 40°41' W 074°05'0 0.0
2017-May-23 05:30N 40°41' W 074°05'0 0.0
2017-May-23 05:00N 40°41' W 074°05'0 0.0
2017-May-23 04:30N 40°41' W 074°05'0 0.0
2017-May-23 04:00N 40°41' W 074°05'0 0.0
2017-May-23 03:30N 40°41' W 074°05'0 0.0
2017-May-23 03:00N 40°41' W 074°05'0 0.0
2017-May-23 02:30N 40°41' W 074°05'0 0.0
2017-May-23 02:00N 40°41' W 074°05'0 0.0
2017-May-23 01:30N 40°41' W 074°05'0 0.0
2017-May-23 01:00N 40°41' W 074°05'0 0.0
2017-May-23 00:30N 40°41' W 074°05'0 0.0
2017-May-23 00:00N 40°41' W 074°05'0 0.0
2017-May-22 23:30N 40°41' W 074°05'0 0.0
2017-May-22 23:01N 40°41' W 074°05'0 0.0
2017-May-22 22:30N 40°41' W 074°05'0 0.0
2017-May-22 22:00N 40°41' W 074°05'0 0.0
2017-May-22 21:30N 40°41' W 074°05'0 0.0
2017-May-22 21:00N 40°41' W 074°05'0 0.0
2017-May-22 20:30N 40°41' W 074°05'0 0.0
2017-May-22 20:00N 40°41' W 074°05'0 0.0
2017-May-22 19:30N 40°41' W 074°05'0 0.0
2017-May-22 19:00N 40°41' W 074°05'0 0.0
2017-May-22 18:30N 40°41' W 074°05'0 0.0
2017-May-22 18:00N 40°41' W 074°05'0 0.0
2017-May-22 17:30N 40°41' W 074°05'0 0.0
2017-May-22 17:00N 40°41' W 074°05'0 0.0
2017-May-22 16:30N 40°41' W 074°05'0 0.0
2017-May-22 16:00N 40°41' W 074°05'0 0.0
2017-May-22 15:30N 40°41' W 074°05'0 0.0
2017-May-22 15:00N 40°41' W 074°05'0 0.0
2017-May-22 14:00N 40°41' W 074°05'0 0.0
2017-May-22 13:30N 40°41' W 074°05'0 0.0
2017-May-22 13:00N 40°41' W 074°05'0 0.0
2017-May-22 12:30N 40°41' W 074°05'0 0.0
2017-May-22 12:00N 40°41' W 074°05'0 0.0
2017-May-22 11:30N 40°41' W 074°05'0 0.0
2017-May-22 11:00N 40°41' W 074°05'0 0.0
2017-May-22 10:30N 40°41' W 074°05'0 0.0
2017-May-22 10:00N 40°41' W 074°05'0 0.0
2017-May-22 09:30N 40°41' W 074°05'0 0.0
2017-May-22 09:00N 40°41' W 074°05'0 0.0
2017-May-22 08:30N 40°41' W 074°05'0 0.0
2017-May-22 08:00N 40°41' W 074°05'0 0.0
2017-May-22 07:30N 40°41' W 074°05'0 0.0
2017-May-22 07:00N 40°41' W 074°05'0 0.0
2017-May-22 06:30N 40°41' W 074°05'0 0.0
2017-May-22 06:00N 40°41' W 074°05'0 0.0
2017-May-22 05:30N 40°41' W 074°05'0 0.0
2017-May-22 05:00N 40°41' W 074°05'0 0.0
2017-May-22 04:30N 40°41' W 074°05'0 0.0
2017-May-22 04:00N 40°41' W 074°05'0 0.0
2017-May-22 03:30N 40°41' W 074°05'0 0.0
2017-May-22 03:00N 40°41' W 074°05'0 0.0
2017-May-22 02:30N 40°41' W 074°05'0 0.0
2017-May-22 02:00N 40°41' W 074°05'0 0.0
2017-May-22 01:30N 40°41' W 074°05'0 0.0
2017-May-22 01:00N 40°41' W 074°05'0 0.0
2017-May-22 00:30N 40°41' W 074°05'0 0.0
2017-May-22 00:00N 40°41' W 074°05'0 0.0
2017-May-21 23:30N 40°41' W 074°05'0 0.0
2017-May-21 23:00N 40°41' W 074°05'0 0.0
2017-May-21 22:30N 40°41' W 074°05'0 0.0
2017-May-21 22:00N 40°41' W 074°05'0 0.0
2017-May-21 21:30N 40°41' W 074°05'0 0.0
2017-May-21 21:00N 40°41' W 074°05'0 0.0
2017-May-21 20:30N 40°41' W 074°05'0 0.0
2017-May-21 20:00N 40°41' W 074°05'0 0.0
2017-May-21 19:30N 40°41' W 074°05'0 0.0
2017-May-21 19:00N 40°41' W 074°05'0 0.0
2017-May-21 18:30N 40°41' W 074°05'0 0.0
2017-May-21 18:00N 40°41' W 074°05'0 0.0
2017-May-21 17:30N 40°41' W 074°05'0 0.0
2017-May-21 17:00N 40°41' W 074°05'0 0.0
2017-May-21 16:30N 40°41' W 074°05'0 0.0
2017-May-21 16:00N 40°41' W 074°05'0 0.0
2017-May-21 15:30N 40°41' W 074°05'0 0.0
2017-May-21 15:00N 40°41' W 074°05'0 0.0
2017-May-21 14:30N 40°41' W 074°05'0 0.0
2017-May-21 13:30N 40°41' W 074°05'0 0.0
2017-May-21 13:00N 40°41' W 074°05'0 0.0
2017-May-21 12:30N 40°41' W 074°05'0 0.0
2017-May-21 12:00N 40°41' W 074°05'0 0.0
2017-May-21 11:30N 40°41' W 074°05'0 0.0
2017-May-21 11:00N 40°41' W 074°05'0 0.0
2017-May-21 10:30N 40°41' W 074°05'0 0.0
2017-May-21 10:00N 40°41' W 074°05'0 0.0
2017-May-21 09:30N 40°41' W 074°05'0 0.0
2017-May-21 09:00N 40°41' W 074°05'0 0.3
2017-May-21 08:30N 40°41' W 074°04'2 4.6
2017-May-21 08:00N 40°40' W 074°02'1 1.5
2017-May-21 07:30N 40°40' W 074°01'3 6.4
2017-May-21 07:00N 40°41' W 074°05'0 0.0
2017-May-21 06:30N 40°41' W 074°05'0 0.0
2017-May-21 06:00N 40°41' W 074°05'0 0.0
2017-May-21 05:30N 40°41' W 074°05'0 0.0
2017-May-21 05:00N 40°41' W 074°05'0 0.0
2017-May-21 04:30N 40°41' W 074°05'0 0.0
2017-May-21 04:00N 40°41' W 074°05'0 0.0
2017-May-21 03:30N 40°41' W 074°05'0 0.0
2017-May-21 03:00N 40°41' W 074°05'0 0.0
2017-May-21 02:30N 40°41' W 074°05'0 0.0
2017-May-21 02:00N 40°41' W 074°05'0 0.0
2017-May-21 01:30N 40°41' W 074°05'0 0.0
2017-May-21 01:00N 40°41' W 074°05'0 0.0
2017-May-21 00:30N 40°41' W 074°05'0 0.0
2017-May-21 00:00N 40°41' W 074°05'0 0.0
2017-May-20 23:30N 40°41' W 074°05'0 0.0
2017-May-20 23:00N 40°41' W 074°05'0 0.0
2017-May-20 22:30N 40°41' W 074°05'0 0.0
2017-May-20 22:00N 40°41' W 074°05'0 0.0
2017-May-20 21:30N 40°41' W 074°05'0 0.0
2017-May-20 21:00N 40°41' W 074°05'0 0.0
2017-May-20 20:30N 40°41' W 074°05'0 0.0
2017-May-20 20:00N 40°41' W 074°05'0 0.0
2017-May-20 19:30N 40°41' W 074°05'0 0.0
2017-May-20 19:00N 40°41' W 074°05'0 0.0
2017-May-20 18:30N 40°41' W 074°05'0 0.0
2017-May-20 18:00N 40°41' W 074°05'0 0.0
2017-May-20 17:30N 40°41' W 074°05'0 0.0
2017-May-20 17:00N 40°41' W 074°05'0 0.0
2017-May-20 16:30N 40°41' W 074°05'0 0.0
2017-May-20 16:00N 40°41' W 074°05'0 0.0
2017-May-20 15:30N 40°41' W 074°05'0 0.0
2017-May-20 15:00N 40°41' W 074°05'0 0.0
2017-May-20 14:30N 40°41' W 074°05'0 0.0
2017-May-20 13:30N 40°41' W 074°05'0 0.1
2017-May-20 13:00N 40°41' W 074°05'3 5.0
2017-May-20 12:30N 40°40' W 074°02'1 1.3
2017-May-20 12:00N 40°40' W 074°01'3 5.8
2017-May-20 11:30N 40°42' W 073°59'2 4.2
2017-May-20 11:00N 40°44' W 073°58'1 1.6
2017-May-20 10:31N 40°45' W 073°58'4 7.5
2017-May-20 09:58N 40°48' W 073°54'2 1.2
2017-May-20 08:23N 40°48' W 073°52'3 6.1
2017-May-20 07:58N 40°47' W 073°55'4 7.9
2017-May-20 07:30N 40°44' W 073°58'1 1.6
2017-May-20 07:00N 40°44' W 073°57'0 0.0
2017-May-20 06:30N 40°44' W 073°57'0 0.0
2017-May-20 06:01N 40°44' W 073°57'0 0.0
2017-May-20 05:30N 40°44' W 073°57'0 0.0
2017-May-20 05:00N 40°44' W 073°57'0 0.4
2017-May-20 04:30N 40°44' W 073°57'0 0.4
2017-May-20 04:00N 40°44' W 073°57'0 0.1
2017-May-20 03:30N 40°44' W 073°57'1 2.9
2017-May-20 03:00N 40°43' W 073°58'2 4.6
2017-May-20 02:31N 40°42' W 074°01'2 4.3
2017-May-20 02:01N 40°41' W 074°03'1 2.3
2017-May-20 01:31N 40°41' W 074°04'0 0.3
2017-May-20 01:00N 40°41' W 074°05'0 0.0
2017-May-20 00:31N 40°41' W 074°05'0 0.0
2017-May-20 00:01N 40°41' W 074°05'0 0.0
2017-May-19 23:31N 40°41' W 074°05'0 0.0
2017-May-19 23:01N 40°41' W 074°05'0 0.0
2017-May-19 22:30N 40°41' W 074°05'0 0.0
2017-May-19 22:01N 40°41' W 074°05'0 0.0
2017-May-19 21:30N 40°41' W 074°05'0 0.0
2017-May-19 21:01N 40°41' W 074°05'0 0.0
2017-May-19 20:30N 40°41' W 074°05'0 0.0
2017-May-19 20:00N 40°41' W 074°05'0 0.0
2017-May-19 19:31N 40°41' W 074°05'0 0.0
2017-May-19 19:01N 40°41' W 074°05'0 0.3
2017-May-19 18:31N 40°41' W 074°04'3 6.7
2017-May-19 18:01N 40°40' W 074°01'1 2.1
2017-May-19 17:31N 40°41' W 074°01'0 0.2
2017-May-19 17:01N 40°41' W 074°01'3 5.3
2017-May-19 16:31N 40°41' W 074°05'0 0.0
2017-May-19 16:00N 40°41' W 074°05'0 0.0
2017-May-19 15:30N 40°41' W 074°05'0 0.0
2017-May-19 15:00N 40°41' W 074°05'0 0.0
2017-May-19 14:01N 40°41' W 074°05'0 0.0
2017-May-19 13:31N 40°41' W 074°05'0 0.0
2017-May-19 13:00N 40°41' W 074°05'0 0.0
2017-May-19 12:31N 40°41' W 074°05'0 0.0
2017-May-19 12:00N 40°41' W 074°05'0 0.0
2017-May-19 11:31N 40°41' W 074°05'0 0.0
2017-May-19 11:00N 40°41' W 074°05'0 0.0
2017-May-19 10:31N 40°41' W 074°05'0 0.0
2017-May-19 10:01N 40°41' W 074°05'0 0.0
2017-May-19 09:31N 40°41' W 074°05'0 0.0
2017-May-19 09:01N 40°41' W 074°05'0 0.0
2017-May-19 08:31N 40°41' W 074°05'0 0.0
2017-May-19 08:01N 40°41' W 074°05'0 0.0
2017-May-19 07:31N 40°41' W 074°05'0 0.0
2017-May-19 07:00N 40°41' W 074°05'0 0.0
2017-May-19 06:31N 40°41' W 074°05'0 0.0
2017-May-19 06:01N 40°41' W 074°05'0 0.0
2017-May-19 05:30N 40°41' W 074°05'0 0.0
2017-May-19 05:00N 40°41' W 074°05'1 1.8
2017-May-19 04:31N 40°41' W 074°04'3 6.1
2017-May-19 04:01N 40°42' W 074°00'2 4.4
2017-May-19 03:30N 40°44' W 073°58'1 2.5
2017-May-19 03:01N 40°44' W 073°57'1 2.0
2017-May-19 02:30N 40°44' W 073°58'3 6.6
2017-May-19 02:01N 40°42' W 074°01'3 5.2
2017-May-19 01:31N 40°41' W 074°04'0 0.1
2017-May-19 01:00N 40°41' W 074°04'0 0.4
2017-May-19 00:30N 40°41' W 074°05'0 0.0
2017-May-19 00:01N 40°41' W 074°05'0 0.0
2017-May-18 23:31N 40°41' W 074°05'0 0.0
2017-May-18 23:00N 40°41' W 074°05'0 0.0
2017-May-18 22:30N 40°41' W 074°05'0 0.0
2017-May-18 22:00N 40°41' W 074°05'0 0.0
2017-May-18 21:30N 40°41' W 074°05'0 0.0
2017-May-18 21:00N 40°41' W 074°05'0 0.0
2017-May-18 20:31N 40°41' W 074°05'0 0.0
2017-May-18 20:00N 40°41' W 074°05'0 0.0
2017-May-18 19:30N 40°41' W 074°05'0 0.0
2017-May-18 19:00N 40°41' W 074°05'0 0.0
2017-May-18 18:30N 40°41' W 074°05'0 0.0
2017-May-18 18:01N 40°41' W 074°05'0 0.0
2017-May-18 17:31N 40°41' W 074°05'0 0.0
2017-May-18 17:00N 40°41' W 074°05'0 0.0
2017-May-18 16:30N 40°41' W 074°05'0 0.0
2017-May-18 16:00N 40°41' W 074°05'0 0.0
2017-May-18 15:31N 40°41' W 074°05'0 0.0
2017-May-18 15:00N 40°41' W 074°05'0 0.0
2017-May-18 14:00N 40°41' W 074°05'0 0.0
2017-May-18 13:30N 40°41' W 074°05'0 0.1
2017-May-18 13:01N 40°41' W 074°05'0 0.1
2017-May-18 12:30N 40°41' W 074°05'0 0.0
2017-May-18 12:00N 40°41' W 074°05'0 0.0
2017-May-18 11:31N 40°41' W 074°05'0 0.0
2017-May-18 11:00N 40°41' W 074°05'0 0.0
2017-May-18 10:30N 40°41' W 074°05'0 0.0
2017-May-18 10:00N 40°41' W 074°05'0 0.0
2017-May-18 09:30N 40°41' W 074°05'0 0.0
2017-May-18 09:00N 40°41' W 074°05'0 0.0
2017-May-18 08:30N 40°41' W 074°05'0 0.0
2017-May-18 08:00N 40°41' W 074°05'0 0.0
2017-May-18 07:30N 40°41' W 074°05'0 0.0
2017-May-18 07:00N 40°41' W 074°05'0 0.0
2017-May-18 06:30N 40°41' W 074°05'0 0.0
2017-May-18 06:00N 40°41' W 074°05'0 0.0
2017-May-18 05:30N 40°41' W 074°05'0 0.0
2017-May-18 05:00N 40°41' W 074°05'0 0.0
2017-May-18 04:30N 40°41' W 074°05'0 0.0
2017-May-18 04:00N 40°41' W 074°05'0 0.0
2017-May-18 03:30N 40°41' W 074°05'0 0.0
2017-May-18 03:00N 40°41' W 074°05'0 0.0
2017-May-18 02:30N 40°41' W 074°05'0 0.0
2017-May-18 02:00N 40°41' W 074°05'0 0.0
2017-May-18 01:30N 40°41' W 074°05'0 0.0
2017-May-18 01:00N 40°41' W 074°05'0 0.0
2017-May-18 00:30N 40°41' W 074°05'1 1.0
2017-May-18 00:00N 40°41' W 074°04'2 4.4
2017-May-17 23:30N 40°39' W 074°03'2 4.5
2017-May-17 23:00N 40°37' W 074°03'2 3.5
2017-May-17 22:30N 40°35' W 074°02'3 5.2
2017-May-17 21:59N 40°32' W 074°02'3 6.3
2017-May-17 21:26N 40°29' W 074°03'2 4.7
2017-May-17 20:58N 40°29' W 073°60'20 6.7
2017-May-17 18:03N 40°09' W 074°00'0 6.9
2017-May-17 17:59N 40°09' W 074°00'3 6.0
2017-May-17 17:30N 40°06' W 074°02'1 1.4
2017-May-17 17:00N 40°06' W 074°03'0 0.0
2017-May-17 16:30N 40°06' W 074°03'0 0.0
2017-May-17 16:00N 40°06' W 074°03'0 0.0
2017-May-17 15:30N 40°06' W 074°03'0 0.0
2017-May-17 15:00N 40°06' W 074°03'0 0.0
2017-May-17 14:30N 40°06' W 074°03'0 0.0
2017-May-17 13:30N 40°06' W 074°03'0 0.0
2017-May-17 13:00N 40°06' W 074°03'0 0.0
2017-May-17 12:30N 40°06' W 074°03'0 0.0
2017-May-17 12:00N 40°06' W 074°03'0 0.0
2017-May-17 11:30N 40°06' W 074°03'0 0.0
2017-May-17 11:00N 40°06' W 074°03'0 0.0
2017-May-17 10:30N 40°06' W 074°03'0 0.0
2017-May-17 10:00N 40°06' W 074°03'0 0.0
2017-May-17 09:30N 40°06' W 074°03'0 0.0
2017-May-17 09:00N 40°06' W 074°03'0 0.0
2017-May-17 08:30N 40°06' W 074°03'0 0.0
2017-May-17 08:00N 40°06' W 074°03'0 0.0
2017-May-17 07:30N 40°06' W 074°03'0 0.0
2017-May-17 07:00N 40°06' W 074°03'0 0.0
2017-May-17 06:30N 40°06' W 074°03'0 0.0
2017-May-17 06:00N 40°06' W 074°03'0 0.0
2017-May-17 05:30N 40°06' W 074°03'0 0.0
2017-May-17 05:00N 40°06' W 074°03'0 0.0
2017-May-17 04:30N 40°06' W 074°03'0 0.0
2017-May-17 04:00N 40°06' W 074°03'0 0.0
2017-May-17 03:30N 40°06' W 074°03'0 0.0
2017-May-17 03:00N 40°06' W 074°03'0 0.0
2017-May-17 02:30N 40°06' W 074°03'0 0.0
2017-May-17 02:00N 40°06' W 074°03'0 0.0
2017-May-17 01:30N 40°06' W 074°03'0 0.0
2017-May-17 01:00N 40°06' W 074°03'1 1.5
2017-May-17 00:30N 40°06' W 074°02'1 2.5
2017-May-17 00:00N 40°06' W 073°60'0 0.0
2017-May-16 11:14N 40°06' W 073°60'1 5.6
2017-May-16 11:00N 40°06' W 074°02'1 1.5
2017-May-16 10:30N 40°06' W 074°03'0 0.0
2017-May-16 10:00N 40°06' W 074°03'0 0.0
2017-May-16 09:30N 40°06' W 074°03'0 0.0
2017-May-16 09:00N 40°06' W 074°03'0 0.0
2017-May-16 08:30N 40°06' W 074°03'0 0.0
2017-May-16 08:00N 40°06' W 074°03'0 0.0
2017-May-16 07:30N 40°06' W 074°03'0 0.0
2017-May-16 07:00N 40°06' W 074°03'0 0.0
2017-May-16 06:30N 40°06' W 074°03'0 0.0
2017-May-16 06:00N 40°06' W 074°03'0 0.0
2017-May-16 05:30N 40°06' W 074°03'0 0.0
2017-May-16 05:00N 40°06' W 074°03'0 0.0
2017-May-16 04:30N 40°06' W 074°03'0 0.0
2017-May-16 04:00N 40°06' W 074°03'0 0.0
2017-May-16 03:30N 40°06' W 074°03'0 0.0
2017-May-16 03:00N 40°06' W 074°03'0 0.0
2017-May-16 02:30N 40°06' W 074°03'0 0.0
2017-May-16 02:00N 40°06' W 074°03'0 0.0
2017-May-16 01:30N 40°06' W 074°03'0 0.0
2017-May-16 01:00N 40°06' W 074°03'0 0.0
2017-May-16 00:30N 40°06' W 074°03'0 0.0
2017-May-16 00:00N 40°06' W 074°03'0 0.0
2017-May-15 23:30N 40°06' W 074°03'0 0.0
2017-May-15 23:00N 40°06' W 074°03'0 0.0
2017-May-15 22:30N 40°06' W 074°03'0 0.0
2017-May-15 22:00N 40°06' W 074°03'0 0.0
2017-May-15 21:30N 40°06' W 074°03'0 0.0
2017-May-15 21:00N 40°06' W 074°03'0 0.0
2017-May-15 20:30N 40°06' W 074°03'0 0.0
2017-May-15 20:00N 40°06' W 074°03'0 0.0
2017-May-15 19:30N 40°06' W 074°03'0 0.0
2017-May-15 19:00N 40°06' W 074°03'0 0.0
2017-May-15 18:30N 40°06' W 074°03'0 0.0
2017-May-15 18:00N 40°06' W 074°03'0 0.0
2017-May-15 17:30N 40°06' W 074°03'0 0.0
2017-May-15 17:00N 40°06' W 074°03'0 0.0
2017-May-15 16:30N 40°06' W 074°03'0 0.5
2017-May-15 16:00N 40°06' W 074°03'0 0.0
2017-May-15 15:30N 40°06' W 074°03'0 0.0
2017-May-15 15:00N 40°06' W 074°03'0 0.1
2017-May-15 14:00N 40°06' W 074°03'0 0.4
2017-May-15 13:30N 40°06' W 074°03'0 0.0
2017-May-15 13:00N 40°06' W 074°03'0 0.0
2017-May-15 12:30N 40°06' W 074°03'0 0.1
2017-May-15 12:00N 40°06' W 074°03'0 0.0
2017-May-15 11:30N 40°06' W 074°03'0 0.0
2017-May-15 11:00N 40°06' W 074°03'0 0.0
2017-May-15 10:30N 40°06' W 074°03'0 0.0
2017-May-15 10:00N 40°06' W 074°03'0 0.0
2017-May-15 09:30N 40°06' W 074°03'0 0.0
2017-May-15 09:00N 40°06' W 074°03'0 0.0
2017-May-15 08:30N 40°06' W 074°03'0 0.0
2017-May-15 08:00N 40°06' W 074°03'0 0.0
2017-May-15 07:30N 40°06' W 074°03'0 0.0
2017-May-15 07:00N 40°06' W 074°03'0 0.0
2017-May-15 06:30N 40°06' W 074°03'0 0.0
2017-May-15 06:00N 40°06' W 074°03'0 0.0
2017-May-15 05:30N 40°06' W 074°03'0 0.0
2017-May-15 05:00N 40°06' W 074°03'0 0.0
2017-May-15 04:30N 40°06' W 074°03'0 0.0
2017-May-15 04:00N 40°06' W 074°03'0 0.0
2017-May-15 03:30N 40°06' W 074°03'0 0.0
2017-May-15 03:00N 40°06' W 074°03'0 0.0
2017-May-15 02:30N 40°06' W 074°03'0 0.0
2017-May-15 02:00N 40°06' W 074°03'0 0.0
2017-May-15 01:30N 40°06' W 074°03'0 0.0
2017-May-15 01:00N 40°06' W 074°03'0 0.0
2017-May-15 00:30N 40°06' W 074°03'0 0.0
2017-May-15 00:00N 40°06' W 074°03'0 0.0
2017-May-14 23:30N 40°06' W 074°03'0 0.1
2017-May-14 23:00N 40°06' W 074°03'0 0.0
2017-May-14 22:30N 40°06' W 074°03'0 0.0
2017-May-14 22:00N 40°06' W 074°03'0 0.0
2017-May-14 21:30N 40°06' W 074°03'0 0.0
2017-May-14 21:00N 40°06' W 074°03'0 0.0
2017-May-14 20:30N 40°06' W 074°03'0 0.0
2017-May-14 20:00N 40°06' W 074°03'0 0.0
2017-May-14 19:30N 40°06' W 074°03'0 0.0
2017-May-14 19:00N 40°06' W 074°03'0 0.0
2017-May-14 18:30N 40°06' W 074°03'0 0.0
2017-May-14 18:00N 40°06' W 074°03'0 0.0
2017-May-14 17:30N 40°06' W 074°03'0 0.0
2017-May-14 17:00N 40°06' W 074°03'0 0.0
2017-May-14 16:30N 40°06' W 074°03'0 0.0
2017-May-14 16:00N 40°06' W 074°03'0 0.0
2017-May-14 15:30N 40°06' W 074°03'0 0.0
2017-May-14 15:00N 40°06' W 074°03'0 0.0
2017-May-14 14:30N 40°06' W 074°03'0 0.0
2017-May-14 13:30N 40°06' W 074°03'0 0.0
2017-May-14 13:00N 40°06' W 074°03'0 0.0
2017-May-14 12:30N 40°06' W 074°03'0 0.0
2017-May-14 12:00N 40°06' W 074°03'0 0.0
2017-May-14 11:30N 40°06' W 074°03'0 0.0
2017-May-14 11:00N 40°06' W 074°03'0 0.0
2017-May-14 10:30N 40°06' W 074°03'0 0.0
2017-May-14 10:00N 40°06' W 074°03'0 0.0
2017-May-14 09:30N 40°06' W 074°03'0 0.0
2017-May-14 09:00N 40°06' W 074°03'0 0.0
2017-May-14 08:30N 40°06' W 074°03'0 0.0
2017-May-14 08:00N 40°06' W 074°03'  
Track history (hours):
 
Tides and Currents Weather Stations Pressure Air Temp Water Temp Dewpoint Dewpoint Depression Visibility Wind Speed Wind Dir Waves Ship Positions

MV Sea Wolf

Owner: SEA WOLF MARINE TOWING & TRANSPORTATION, Bayonne, NJ. More information available from US FCC via Universal Licensing System and Coast Guard Vessel Documentation Center.

Last reported at 2017-May-24 07:30 UTC. Time now 2017-May-24 07:57 UTC.
Position N 40°41' W 074°05'.

Length 66 m; draft 10 m.

MMSI: 367002350.

Date/timePositionNaut miles runAvg speedWind from/ knotsBaromVisibWave heightAir tempDewpointWater temp
2017-May-24 07:30N 40°41' W 074°05'0 0.0
2017-May-24 07:00N 40°41' W 074°05'0 0.0
2017-May-24 06:30N 40°41' W 074°05'0 0.0
2017-May-24 06:00N 40°41' W 074°05'0 0.0
2017-May-24 05:30N 40°41' W 074°05'0 0.0
2017-May-24 05:00N 40°41' W 074°05'0 0.0
2017-May-24 04:30N 40°41' W 074°05'0 0.0
2017-May-24 04:00N 40°41' W 074°05'0 0.0
2017-May-24 03:30N 40°41' W 074°05'0 0.0
2017-May-24 03:00N 40°41' W 074°05'0 0.0
2017-May-24 02:30N 40°41' W 074°05'0 0.0
2017-May-24 02:00N 40°41' W 074°05'0 0.0
2017-May-24 01:30N 40°41' W 074°05'0 0.0
2017-May-24 01:00N 40°41' W 074°05'0 0.0
2017-May-24 00:30N 40°41' W 074°05'0 0.0
2017-May-24 00:00N 40°41' W 074°05'0 0.0
2017-May-23 23:30N 40°41' W 074°05'0 0.0
2017-May-23 23:00N 40°41' W 074°05'0 0.0
2017-May-23 22:30N 40°41' W 074°05'0 0.0
2017-May-23 22:00N 40°41' W 074°05'0 0.0
2017-May-23 21:30N 40°41' W 074°05'0 0.0
2017-May-23 21:00N 40°41' W 074°05'0 0.0
2017-May-23 20:30N 40°41' W 074°05'0 0.0
2017-May-23 20:00N 40°41' W 074°05'0 0.0
2017-May-23 19:30N 40°41' W 074°05'0 0.0
2017-May-23 19:00N 40°41' W 074°05'0 0.0
2017-May-23 18:30N 40°41' W 074°05'0 0.0
2017-May-23 18:00N 40°41' W 074°05'0 0.0
2017-May-23 17:30N 40°41' W 074°05'0 0.0
2017-May-23 17:00N 40°41' W 074°05'0 0.0
2017-May-23 16:30N 40°41' W 074°05'0 0.0
2017-May-23 16:00N 40°41' W 074°05'0 0.0
2017-May-23 15:30N 40°41' W 074°05'0 0.0
2017-May-23 15:00N 40°41' W 074°05'0 0.0
2017-May-23 14:00N 40°41' W 074°05'0 0.0
2017-May-23 13:30N 40°41' W 074°05'0 0.0
2017-May-23 13:00N 40°41' W 074°05'0 0.0
2017-May-23 12:30N 40°41' W 074°05'0 0.0
2017-May-23 12:00N 40°41' W 074°05'0 0.0
2017-May-23 11:30N 40°41' W 074°05'2 3.2
2017-May-23 11:00N 40°41' W 074°03'3 6.3
2017-May-23 10:30N 40°44' W 074°01'1 1.5
2017-May-23 10:00N 40°45' W 074°01'0 0.1
2017-May-23 09:30N 40°45' W 074°01'0 0.1
2017-May-23 09:00N 40°45' W 074°01'3 5.9
2017-May-23 08:30N 40°42' W 074°02'2 4.3
2017-May-23 08:00N 40°41' W 074°05'0 0.0
2017-May-23 07:30N 40°41' W 074°05'0 0.0
2017-May-23 07:00N 40°41' W 074°05'0 0.0
2017-May-23 06:30N 40°41' W 074°05'0 0.0
2017-May-23 06:00N 40°41' W 074°05'0 0.0
2017-May-23 05:30N 40°41' W 074°05'0 0.0
2017-May-23 05:00N 40°41' W 074°05'0 0.0
2017-May-23 04:30N 40°41' W 074°05'0 0.0
2017-May-23 04:00N 40°41' W 074°05'0 0.0
2017-May-23 03:30N 40°41' W 074°05'0 0.0
2017-May-23 03:00N 40°41' W 074°05'0 0.0
2017-May-23 02:30N 40°41' W 074°05'0 0.0
2017-May-23 02:00N 40°41' W 074°05'0 0.0
2017-May-23 01:30N 40°41' W 074°05'0 0.0
2017-May-23 01:00N 40°41' W 074°05'0 0.0
2017-May-23 00:30N 40°41' W 074°05'0 0.0
2017-May-23 00:00N 40°41' W 074°05'0 0.0
2017-May-22 23:30N 40°41' W 074°05'0 0.0
2017-May-22 23:01N 40°41' W 074°05'0 0.0
2017-May-22 22:30N 40°41' W 074°05'0 0.0
2017-May-22 22:00N 40°41' W 074°05'0 0.0
2017-May-22 21:30N 40°41' W 074°05'0 0.0
2017-May-22 21:00N 40°41' W 074°05'0 0.0
2017-May-22 20:30N 40°41' W 074°05'0 0.0
2017-May-22 20:00N 40°41' W 074°05'0 0.0
2017-May-22 19:30N 40°41' W 074°05'0 0.0
2017-May-22 19:00N 40°41' W 074°05'0 0.0
2017-May-22 18:30N 40°41' W 074°05'0 0.0
2017-May-22 18:00N 40°41' W 074°05'0 0.0
2017-May-22 17:30N 40°41' W 074°05'0 0.0
2017-May-22 17:00N 40°41' W 074°05'0 0.0
2017-May-22 16:30N 40°41' W 074°05'0 0.0
2017-May-22 16:00N 40°41' W 074°05'0 0.0
2017-May-22 15:30N 40°41' W 074°05'0 0.0
2017-May-22 15:00N 40°41' W 074°05'0 0.0
2017-May-22 14:00N 40°41' W 074°05'0 0.0
2017-May-22 13:30N 40°41' W 074°05'0 0.0
2017-May-22 13:00N 40°41' W 074°05'0 0.0
2017-May-22 12:30N 40°41' W 074°05'0 0.0
2017-May-22 12:00N 40°41' W 074°05'0 0.0
2017-May-22 11:30N 40°41' W 074°05'0 0.0
2017-May-22 11:00N 40°41' W 074°05'0 0.0
2017-May-22 10:30N 40°41' W 074°05'0 0.0
2017-May-22 10:00N 40°41' W 074°05'0 0.0
2017-May-22 09:30N 40°41' W 074°05'0 0.0
2017-May-22 09:00N 40°41' W 074°05'0 0.0
2017-May-22 08:30N 40°41' W 074°05'0 0.0
2017-May-22 08:00N 40°41' W 074°05'0 0.0
2017-May-22 07:30N 40°41' W 074°05'0 0.0
2017-May-22 07:00N 40°41' W 074°05'0 0.0
2017-May-22 06:30N 40°41' W 074°05'0 0.0
2017-May-22 06:00N 40°41' W 074°05'0 0.0
2017-May-22 05:30N 40°41' W 074°05'0 0.0
2017-May-22 05:00N 40°41' W 074°05'0 0.0
2017-May-22 04:30N 40°41' W 074°05'0 0.0
2017-May-22 04:00N 40°41' W 074°05'0 0.0
2017-May-22 03:30N 40°41' W 074°05'0 0.0
2017-May-22 03:00N 40°41' W 074°05'0 0.0
2017-May-22 02:30N 40°41' W 074°05'0 0.0
2017-May-22 02:00N 40°41' W 074°05'0 0.0
2017-May-22 01:30N 40°41' W 074°05'0 0.0
2017-May-22 01:00N 40°41' W 074°05'0 0.0
2017-May-22 00:30N 40°41' W 074°05'0 0.0
2017-May-22 00:00N 40°41' W 074°05'0 0.0
2017-May-21 23:30N 40°41' W 074°05'0 0.0
2017-May-21 23:00N 40°41' W 074°05'0 0.0
2017-May-21 22:30N 40°41' W 074°05'0 0.0
2017-May-21 22:00N 40°41' W 074°05'0 0.0
2017-May-21 21:30N 40°41' W 074°05'0 0.0
2017-May-21 21:00N 40°41' W 074°05'0 0.0
2017-May-21 20:30N 40°41' W 074°05'0 0.0
2017-May-21 20:00N 40°41' W 074°05'0 0.0
2017-May-21 19:30N 40°41' W 074°05'0 0.0
2017-May-21 19:00N 40°41' W 074°05'0 0.0
2017-May-21 18:30N 40°41' W 074°05'0 0.0
2017-May-21 18:00N 40°41' W 074°05'0 0.0
2017-May-21 17:30N 40°41' W 074°05'0 0.0
2017-May-21 17:00N 40°41' W 074°05'0 0.0
2017-May-21 16:30N 40°41' W 074°05'0 0.0
2017-May-21 16:00N 40°41' W 074°05'0 0.0
2017-May-21 15:30N 40°41' W 074°05'0 0.0
2017-May-21 15:00N 40°41' W 074°05'0 0.0
2017-May-21 14:30N 40°41' W 074°05'0 0.0
2017-May-21 13:30N 40°41' W 074°05'0 0.0
2017-May-21 13:00N 40°41' W 074°05'0 0.0
2017-May-21 12:30N 40°41' W 074°05'0 0.0
2017-May-21 12:00N 40°41' W 074°05'0 0.0
2017-May-21 11:30N 40°41' W 074°05'0 0.0
2017-May-21 11:00N 40°41' W 074°05'0 0.0
2017-May-21 10:30N 40°41' W 074°05'0 0.0
2017-May-21 10:00N 40°41' W 074°05'0 0.0
2017-May-21 09:30N 40°41' W 074°05'0 0.0
2017-May-21 09:00N 40°41' W 074°05'0 0.3
2017-May-21 08:30N 40°41' W 074°04'2 4.6
2017-May-21 08:00N 40°40' W 074°02'1 1.5
2017-May-21 07:30N 40°40' W 074°01'3 6.4
2017-May-21 07:00N 40°41' W 074°05'0 0.0
2017-May-21 06:30N 40°41' W 074°05'0 0.0
2017-May-21 06:00N 40°41' W 074°05'0 0.0
2017-May-21 05:30N 40°41' W 074°05'0 0.0
2017-May-21 05:00N 40°41' W 074°05'0 0.0
2017-May-21 04:30N 40°41' W 074°05'0 0.0
2017-May-21 04:00N 40°41' W 074°05'0 0.0
2017-May-21 03:30N 40°41' W 074°05'0 0.0
2017-May-21 03:00N 40°41' W 074°05'0 0.0
2017-May-21 02:30N 40°41' W 074°05'0 0.0
2017-May-21 02:00N 40°41' W 074°05'0 0.0
2017-May-21 01:30N 40°41' W 074°05'0 0.0
2017-May-21 01:00N 40°41' W 074°05'0 0.0
2017-May-21 00:30N 40°41' W 074°05'0 0.0
2017-May-21 00:00N 40°41' W 074°05'0 0.0
2017-May-20 23:30N 40°41' W 074°05'0 0.0
2017-May-20 23:00N 40°41' W 074°05'0 0.0
2017-May-20 22:30N 40°41' W 074°05'0 0.0
2017-May-20 22:00N 40°41' W 074°05'0 0.0
2017-May-20 21:30N 40°41' W 074°05'0 0.0
2017-May-20 21:00N 40°41' W 074°05'0 0.0
2017-May-20 20:30N 40°41' W 074°05'0 0.0
2017-May-20 20:00N 40°41' W 074°05'0 0.0
2017-May-20 19:30N 40°41' W 074°05'0 0.0
2017-May-20 19:00N 40°41' W 074°05'0 0.0
2017-May-20 18:30N 40°41' W 074°05'0 0.0
2017-May-20 18:00N 40°41' W 074°05'0 0.0
2017-May-20 17:30N 40°41' W 074°05'0 0.0
2017-May-20 17:00N 40°41' W 074°05'0 0.0
2017-May-20 16:30N 40°41' W 074°05'0 0.0
2017-May-20 16:00N 40°41' W 074°05'0 0.0
2017-May-20 15:30N 40°41' W 074°05'0 0.0
2017-May-20 15:00N 40°41' W 074°05'0 0.0
2017-May-20 14:30N 40°41' W 074°05'0 0.0
2017-May-20 13:30N 40°41' W 074°05'0 0.1
2017-May-20 13:00N 40°41' W 074°05'3 5.0
2017-May-20 12:30N 40°40' W 074°02'1 1.3
2017-May-20 12:00N 40°40' W 074°01'3 5.8
2017-May-20 11:30N 40°42' W 073°59'2 4.2
2017-May-20 11:00N 40°44' W 073°58'1 1.6
2017-May-20 10:31N 40°45' W 073°58'4 7.5
2017-May-20 09:58N 40°48' W 073°54'2 1.2
2017-May-20 08:23N 40°48' W 073°52'3 6.1
2017-May-20 07:58N 40°47' W 073°55'4 7.9
2017-May-20 07:30N 40°44' W 073°58'1 1.6
2017-May-20 07:00N 40°44' W 073°57'0 0.0
2017-May-20 06:30N 40°44' W 073°57'0 0.0
2017-May-20 06:01N 40°44' W 073°57'0 0.0
2017-May-20 05:30N 40°44' W 073°57'0 0.0
2017-May-20 05:00N 40°44' W 073°57'0 0.4
2017-May-20 04:30N 40°44' W 073°57'0 0.4
2017-May-20 04:00N 40°44' W 073°57'0 0.1
2017-May-20 03:30N 40°44' W 073°57'1 2.9
2017-May-20 03:00N 40°43' W 073°58'2 4.6
2017-May-20 02:31N 40°42' W 074°01'2 4.3
2017-May-20 02:01N 40°41' W 074°03'1 2.3
2017-May-20 01:31N 40°41' W 074°04'0 0.3
2017-May-20 01:00N 40°41' W 074°05'0 0.0
2017-May-20 00:31N 40°41' W 074°05'0 0.0
2017-May-20 00:01N 40°41' W 074°05'0 0.0
2017-May-19 23:31N 40°41' W 074°05'0 0.0
2017-May-19 23:01N 40°41' W 074°05'0 0.0
2017-May-19 22:30N 40°41' W 074°05'0 0.0
2017-May-19 22:01N 40°41' W 074°05'0 0.0
2017-May-19 21:30N 40°41' W 074°05'0 0.0
2017-May-19 21:01N 40°41' W 074°05'0 0.0
2017-May-19 20:30N 40°41' W 074°05'0 0.0
2017-May-19 20:00N 40°41' W 074°05'0 0.0
2017-May-19 19:31N 40°41' W 074°05'0 0.0
2017-May-19 19:01N 40°41' W 074°05'0 0.3
2017-May-19 18:31N 40°41' W 074°04'3 6.7
2017-May-19 18:01N 40°40' W 074°01'1 2.1
2017-May-19 17:31N 40°41' W 074°01'0 0.2
2017-May-19 17:01N 40°41' W 074°01'3 5.3
2017-May-19 16:31N 40°41' W 074°05'0 0.0
2017-May-19 16:00N 40°41' W 074°05'0 0.0
2017-May-19 15:30N 40°41' W 074°05'0 0.0
2017-May-19 15:00N 40°41' W 074°05'0 0.0
2017-May-19 14:01N 40°41' W 074°05'0 0.0
2017-May-19 13:31N 40°41' W 074°05'0 0.0
2017-May-19 13:00N 40°41' W 074°05'0 0.0
2017-May-19 12:31N 40°41' W 074°05'0 0.0
2017-May-19 12:00N 40°41' W 074°05'0 0.0
2017-May-19 11:31N 40°41' W 074°05'0 0.0
2017-May-19 11:00N 40°41' W 074°05'0 0.0
2017-May-19 10:31N 40°41' W 074°05'0 0.0
2017-May-19 10:01N 40°41' W 074°05'0 0.0
2017-May-19 09:31N 40°41' W 074°05'0 0.0
2017-May-19 09:01N 40°41' W 074°05'0 0.0
2017-May-19 08:31N 40°41' W 074°05'0 0.0
2017-May-19 08:01N 40°41' W 074°05'0 0.0
2017-May-19 07:31N 40°41' W 074°05'0 0.0
2017-May-19 07:00N 40°41' W 074°05'0 0.0
2017-May-19 06:31N 40°41' W 074°05'0 0.0
2017-May-19 06:01N 40°41' W 074°05'0 0.0
2017-May-19 05:30N 40°41' W 074°05'0 0.0
2017-May-19 05:00N 40°41' W 074°05'1 1.8
2017-May-19 04:31N 40°41' W 074°04'3 6.1
2017-May-19 04:01N 40°42' W 074°00'2 4.4
2017-May-19 03:30N 40°44' W 073°58'1 2.5
2017-May-19 03:01N 40°44' W 073°57'1 2.0
2017-May-19 02:30N 40°44' W 073°58'3 6.6
2017-May-19 02:01N 40°42' W 074°01'3 5.2
2017-May-19 01:31N 40°41' W 074°04'0 0.1
2017-May-19 01:00N 40°41' W 074°04'0 0.4
2017-May-19 00:30N 40°41' W 074°05'0 0.0
2017-May-19 00:01N 40°41' W 074°05'0 0.0
2017-May-18 23:31N 40°41' W 074°05'0 0.0
2017-May-18 23:00N 40°41' W 074°05'0 0.0
2017-May-18 22:30N 40°41' W 074°05'0 0.0
2017-May-18 22:00N 40°41' W 074°05'0 0.0
2017-May-18 21:30N 40°41' W 074°05'0 0.0
2017-May-18 21:00N 40°41' W 074°05'0 0.0
2017-May-18 20:31N 40°41' W 074°05'0 0.0
2017-May-18 20:00N 40°41' W 074°05'0 0.0
2017-May-18 19:30N 40°41' W 074°05'0 0.0
2017-May-18 19:00N 40°41' W 074°05'0 0.0
2017-May-18 18:30N 40°41' W 074°05'0 0.0
2017-May-18 18:01N 40°41' W 074°05'0 0.0
2017-May-18 17:31N 40°41' W 074°05'0 0.0
2017-May-18 17:00N 40°41' W 074°05'0 0.0
2017-May-18 16:30N 40°41' W 074°05'0 0.0
2017-May-18 16:00N 40°41' W 074°05'0 0.0
2017-May-18 15:31N 40°41' W 074°05'0 0.0
2017-May-18 15:00N 40°41' W 074°05'0 0.0
2017-May-18 14:00N 40°41' W 074°05'0 0.0
2017-May-18 13:30N 40°41' W 074°05'0 0.1
2017-May-18 13:01N 40°41' W 074°05'0 0.1
2017-May-18 12:30N 40°41' W 074°05'0 0.0
2017-May-18 12:00N 40°41' W 074°05'0 0.0
2017-May-18 11:31N 40°41' W 074°05'0 0.0
2017-May-18 11:00N 40°41' W 074°05'0 0.0
2017-May-18 10:30N 40°41' W 074°05'0 0.0
2017-May-18 10:00N 40°41' W 074°05'0 0.0
2017-May-18 09:30N 40°41' W 074°05'0 0.0
2017-May-18 09:00N 40°41' W 074°05'0 0.0
2017-May-18 08:30N 40°41' W 074°05'0 0.0
2017-May-18 08:00N 40°41' W 074°05'0 0.0
2017-May-18 07:30N 40°41' W 074°05'0 0.0
2017-May-18 07:00N 40°41' W 074°05'0 0.0
2017-May-18 06:30N 40°41' W 074°05'0 0.0
2017-May-18 06:00N 40°41' W 074°05'0 0.0
2017-May-18 05:30N 40°41' W 074°05'0 0.0
2017-May-18 05:00N 40°41' W 074°05'0 0.0
2017-May-18 04:30N 40°41' W 074°05'0 0.0
2017-May-18 04:00N 40°41' W 074°05'0 0.0
2017-May-18 03:30N 40°41' W 074°05'0 0.0
2017-May-18 03:00N 40°41' W 074°05'0 0.0
2017-May-18 02:30N 40°41' W 074°05'0 0.0
2017-May-18 02:00N 40°41' W 074°05'0 0.0
2017-May-18 01:30N 40°41' W 074°05'0 0.0
2017-May-18 01:00N 40°41' W 074°05'0 0.0
2017-May-18 00:30N 40°41' W 074°05'1 1.0
2017-May-18 00:00N 40°41' W 074°04'2 4.4
2017-May-17 23:30N 40°39' W 074°03'2 4.5
2017-May-17 23:00N 40°37' W 074°03'2 3.5
2017-May-17 22:30N 40°35' W 074°02'3 5.2
2017-May-17 21:59N 40°32' W 074°02'3 6.3
2017-May-17 21:26N 40°29' W 074°03'2 4.7
2017-May-17 20:58N 40°29' W 073°60'20 6.7
2017-May-17 18:03N 40°09' W 074°00'0 6.9
2017-May-17 17:59N 40°09' W 074°00'3 6.0
2017-May-17 17:30N 40°06' W 074°02'1 1.4
2017-May-17 17:00N 40°06' W 074°03'0 0.0
2017-May-17 16:30N 40°06' W 074°03'0 0.0
2017-May-17 16:00N 40°06' W 074°03'0 0.0
2017-May-17 15:30N 40°06' W 074°03'0 0.0
2017-May-17 15:00N 40°06' W 074°03'0 0.0
2017-May-17 14:30N 40°06' W 074°03'0 0.0
2017-May-17 13:30N 40°06' W 074°03'0 0.0
2017-May-17 13:00N 40°06' W 074°03'0 0.0
2017-May-17 12:30N 40°06' W 074°03'0 0.0
2017-May-17 12:00N 40°06' W 074°03'0 0.0
2017-May-17 11:30N 40°06' W 074°03'0 0.0
2017-May-17 11:00N 40°06' W 074°03'0 0.0
2017-May-17 10:30N 40°06' W 074°03'0 0.0
2017-May-17 10:00N 40°06' W 074°03'0 0.0
2017-May-17 09:30N 40°06' W 074°03'0 0.0
2017-May-17 09:00N 40°06' W 074°03'0 0.0
2017-May-17 08:30N 40°06' W 074°03'0 0.0
2017-May-17 08:00N 40°06' W 074°03'0 0.0
2017-May-17 07:30N 40°06' W 074°03'0 0.0
2017-May-17 07:00N 40°06' W 074°03'0 0.0
2017-May-17 06:30N 40°06' W 074°03'0 0.0
2017-May-17 06:00N 40°06' W 074°03'0 0.0
2017-May-17 05:30N 40°06' W 074°03'0 0.0
2017-May-17 05:00N 40°06' W 074°03'0 0.0
2017-May-17 04:30N 40°06' W 074°03'0 0.0
2017-May-17 04:00N 40°06' W 074°03'0 0.0
2017-May-17 03:30N 40°06' W 074°03'0 0.0
2017-May-17 03:00N 40°06' W 074°03'0 0.0
2017-May-17 02:30N 40°06' W 074°03'0 0.0
2017-May-17 02:00N 40°06' W 074°03'0 0.0
2017-May-17 01:30N 40°06' W 074°03'0 0.0
2017-May-17 01:00N 40°06' W 074°03'1 1.5
2017-May-17 00:30N 40°06' W 074°02'1 2.5
2017-May-17 00:00N 40°06' W 073°60'0 0.0
2017-May-16 11:14N 40°06' W 073°60'1 5.6
2017-May-16 11:00N 40°06' W 074°02'1 1.5
2017-May-16 10:30N 40°06' W 074°03'0 0.0
2017-May-16 10:00N 40°06' W 074°03'0 0.0
2017-May-16 09:30N 40°06' W 074°03'0 0.0
2017-May-16 09:00N 40°06' W 074°03'0 0.0
2017-May-16 08:30N 40°06' W 074°03'0 0.0
2017-May-16 08:00N 40°06' W 074°03'0 0.0
2017-May-16 07:30N 40°06' W 074°03'0 0.0
2017-May-16 07:00N 40°06' W 074°03'0 0.0
2017-May-16 06:30N 40°06' W 074°03'0 0.0
2017-May-16 06:00N 40°06' W 074°03'0 0.0
2017-May-16 05:30N 40°06' W 074°03'0 0.0
2017-May-16 05:00N 40°06' W 074°03'0 0.0
2017-May-16 04:30N 40°06' W 074°03'0 0.0
2017-May-16 04:00N 40°06' W 074°03'0 0.0
2017-May-16 03:30N 40°06' W 074°03'0 0.0
2017-May-16 03:00N 40°06' W 074°03'0 0.0
2017-May-16 02:30N 40°06' W 074°03'0 0.0
2017-May-16 02:00N 40°06' W 074°03'0 0.0
2017-May-16 01:30N 40°06' W 074°03'0 0.0
2017-May-16 01:00N 40°06' W 074°03'0 0.0
2017-May-16 00:30N 40°06' W 074°03'0 0.0
2017-May-16 00:00N 40°06' W 074°03'0 0.0
2017-May-15 23:30N 40°06' W 074°03'0 0.0
2017-May-15 23:00N 40°06' W 074°03'0 0.0
2017-May-15 22:30N 40°06' W 074°03'0 0.0
2017-May-15 22:00N 40°06' W 074°03'0 0.0
2017-May-15 21:30N 40°06' W 074°03'0 0.0
2017-May-15 21:00N 40°06' W 074°03'0 0.0
2017-May-15 20:30N 40°06' W 074°03'0 0.0
2017-May-15 20:00N 40°06' W 074°03'0 0.0
2017-May-15 19:30N 40°06' W 074°03'0 0.0
2017-May-15 19:00N 40°06' W 074°03'0 0.0
2017-May-15 18:30N 40°06' W 074°03'0 0.0
2017-May-15 18:00N 40°06' W 074°03'0 0.0
2017-May-15 17:30N 40°06' W 074°03'0 0.0
2017-May-15 17:00N 40°06' W 074°03'0 0.0
2017-May-15 16:30N 40°06' W 074°03'0 0.5
2017-May-15 16:00N 40°06' W 074°03'0 0.0
2017-May-15 15:30N 40°06' W 074°03'0 0.0
2017-May-15 15:00N 40°06' W 074°03'0 0.1
2017-May-15 14:00N 40°06' W 074°03'0 0.4
2017-May-15 13:30N 40°06' W 074°03'0 0.0
2017-May-15 13:00N 40°06' W 074°03'0 0.0
2017-May-15 12:30N 40°06' W 074°03'0 0.1
2017-May-15 12:00N 40°06' W 074°03'0 0.0
2017-May-15 11:30N 40°06' W 074°03'0 0.0
2017-May-15 11:00N 40°06' W 074°03'0 0.0
2017-May-15 10:30N 40°06' W 074°03'0 0.0
2017-May-15 10:00N 40°06' W 074°03'0 0.0
2017-May-15 09:30N 40°06' W 074°03'0 0.0
2017-May-15 09:00N 40°06' W 074°03'0 0.0
2017-May-15 08:30N 40°06' W 074°03'0 0.0
2017-May-15 08:00N 40°06' W 074°03'0 0.0
2017-May-15 07:30N 40°06' W 074°03'0 0.0
2017-May-15 07:00N 40°06' W 074°03'0 0.0
2017-May-15 06:30N 40°06' W 074°03'0 0.0
2017-May-15 06:00N 40°06' W 074°03'0 0.0
2017-May-15 05:30N 40°06' W 074°03'0 0.0
2017-May-15 05:00N 40°06' W 074°03'0 0.0
2017-May-15 04:30N 40°06' W 074°03'0 0.0
2017-May-15 04:00N 40°06' W 074°03'0 0.0
2017-May-15 03:30N 40°06' W 074°03'0 0.0
2017-May-15 03:00N 40°06' W 074°03'0 0.0
2017-May-15 02:30N 40°06' W 074°03'0 0.0
2017-May-15 02:00N 40°06' W 074°03'0 0.0
2017-May-15 01:30N 40°06' W 074°03'0 0.0
2017-May-15 01:00N 40°06' W 074°03'0 0.0
2017-May-15 00:30N 40°06' W 074°03'0 0.0
2017-May-15 00:00N 40°06' W 074°03'0 0.0
2017-May-14 23:30N 40°06' W 074°03'0 0.1
2017-May-14 23:00N 40°06' W 074°03'0 0.0
2017-May-14 22:30N 40°06' W 074°03'0 0.0
2017-May-14 22:00N 40°06' W 074°03'0 0.0
2017-May-14 21:30N 40°06' W 074°03'0 0.0
2017-May-14 21:00N 40°06' W 074°03'0 0.0
2017-May-14 20:30N 40°06' W 074°03'0 0.0
2017-May-14 20:00N 40°06' W 074°03'0 0.0
2017-May-14 19:30N 40°06' W 074°03'0 0.0
2017-May-14 19:00N 40°06' W 074°03'0 0.0
2017-May-14 18:30N 40°06' W 074°03'0 0.0
2017-May-14 18:00N 40°06' W 074°03'0 0.0
2017-May-14 17:30N 40°06' W 074°03'0 0.0
2017-May-14 17:00N 40°06' W 074°03'0 0.0
2017-May-14 16:30N 40°06' W 074°03'0 0.0
2017-May-14 16:00N 40°06' W 074°03'0 0.0
2017-May-14 15:30N 40°06' W 074°03'0 0.0
2017-May-14 15:00N 40°06' W 074°03'0 0.0
2017-May-14 14:30N 40°06' W 074°03'0 0.0
2017-May-14 13:30N 40°06' W 074°03'0 0.0
2017-May-14 13:00N 40°06' W 074°03'0 0.0
2017-May-14 12:30N 40°06' W 074°03'0 0.0
2017-May-14 12:00N 40°06' W 074°03'0 0.0
2017-May-14 11:30N 40°06' W 074°03'0 0.0
2017-May-14 11:00N 40°06' W 074°03'0 0.0
2017-May-14 10:30N 40°06' W 074°03'0 0.0
2017-May-14 10:00N 40°06' W 074°03'0 0.0
2017-May-14 09:30N 40°06' W 074°03'0 0.0
2017-May-14 09:00N 40°06' W 074°03'0 0.0
2017-May-14 08:30N 40°06' W 074°03'0 0.0
2017-May-14 08:00N 40°06' W 074°03'  

Dump ship's entire track history